Port Alsworth, AK (99653)

11:18 AM AKDT on September 27, 2016 (GMT -0800)
Sparrevohn | | Change Station

Elev 1588 ft 61.10 °N, 155.57 °W | Updated 13 minutes ago

Mostly Cloudy
Mostly Cloudy
37 °F
Feels Like 37 °F
N
0
Wind Variable Wind from North

Today
High -- | Low -- °F
--% Chance of Precip.
Yesterday
High -- | Low -- °F
Precip. -- in
Pressure 30.22 in
Visibility 10.0 miles
Clouds Mostly Cloudy 3100 ft
Dew Point 30 °F
Humidity 75%
Rainfall 0.00 in
Snow Depth Not available.
8:16 AM 8:00 PM
Waning Crescent, 10% visible
SPECI PASV 271905Z AUTO 00000KT 10SM BKN031 03/M01 A3016 RMK AO2 SLP232
Pressure 30.22 in
Visibility 10.0 miles
Clouds Mostly Cloudy 3100 ft
Dew Point 30 °F
Humidity 75%
Rainfall 0.00 in
Snow Depth Not available.
8:16 AM 8:00 PM
Waning Crescent, 10% visible
SPECI PASV 271905Z AUTO 00000KT 10SM BKN031 03/M01 A3016 RMK AO2 SLP232

10-Day Weather Forecast

Almanac

Astronomy

Sep. 27, 2016 Rise Set
Actual Time
Civil Twilight
Nautical Twilight
Astronomical Twilight
Moon
Length of Visible Light
Length of Day
Tomorrow will be .
, % of the Moon is Illuminated

Today's Extremes

State Highs State Lows

Community

WunderPhotos

Upload Photos

1,942,162 photos uploaded!

WunderBlog® & News

Nearby

Air Quality

  Air Quality AQ Index Pollutant
Not available.

Snow Depth

Station Depth Elevation

Earthquake Activity

City Distance Mag. Time & Date
Minimum magnitude displayed is 2.5.

Coastal Water Temperatures

Place Temperature

Stations

Nearby Weather Stations

Station Location Temp. Windchill Dew Point Humidity Wind Precip. Elev Updated Type
                   

Watches & Warnings

There are currently no watches in effect.